createdAt,value
2023-04-08T00:01:46.872Z,64.72
2023-04-08T00:04:16.516Z,53.08
2023-04-08T00:06:45.998Z,56.95
2023-04-08T00:09:15.312Z,54.88
2023-04-08T00:11:44.651Z,57.50
2023-04-08T00:14:13.937Z,61.25
2023-04-08T00:16:43.382Z,59.05
2023-04-08T00:19:12.758Z,60.83
2023-04-08T00:21:42.098Z,50.67
2023-04-08T00:24:11.534Z,55.50
2023-04-08T00:26:41.658Z,52.67
2023-04-08T00:29:10.929Z,54.70
2023-04-08T00:31:40.344Z,59.25
2023-04-08T00:34:09.681Z,55.85
2023-04-08T00:36:39.071Z,52.03
2023-04-08T00:39:08.549Z,60.80
2023-04-08T00:41:38.208Z,54.60
2023-04-08T00:44:08.329Z,54.00
2023-04-08T00:46:40.802Z,53.15
2023-04-08T00:49:10.464Z,51.42
2023-04-08T00:51:40.230Z,51.37
2023-04-08T00:54:09.525Z,54.77
2023-04-08T00:56:39.171Z,49.13
2023-04-08T00:59:08.516Z,50.50
2023-04-08T01:01:56.689Z,52.70
2023-04-08T01:04:47.166Z,60.17
2023-04-08T01:07:31.683Z,54.23
2023-04-08T01:10:10.771Z,53.23
2023-04-08T01:12:43.261Z,47.45
2023-04-08T01:15:13.418Z,56.48
2023-04-08T01:17:43.137Z,57.17
2023-04-08T01:20:12.892Z,55.52
2023-04-08T01:22:54.901Z,50.10
2023-04-08T01:25:27.438Z,55.85
2023-04-08T01:27:58.413Z,58.78
2023-04-08T01:30:28.589Z,57.08
2023-04-08T01:33:01.402Z,53.28
2023-04-08T01:35:32.551Z,51.77
2023-04-08T01:38:02.874Z,62.08
2023-04-08T01:40:33.686Z,58.63
2023-04-08T01:43:06.276Z,59.98
2023-04-08T01:45:35.829Z,58.50
2023-04-08T01:48:05.619Z,55.85
2023-04-08T01:50:35.367Z,55.35
2023-04-08T01:53:05.631Z,53.95
2023-04-08T01:55:37.727Z,56.00
2023-04-08T01:58:08.453Z,51.23
2023-04-08T02:00:38.188Z,59.55
2023-04-08T02:03:08.008Z,59.85
2023-04-08T02:05:37.569Z,64.82
2023-04-08T02:08:07.139Z,56.33
2023-04-08T02:10:36.422Z,55.85
2023-04-08T02:13:06.814Z,53.02
2023-04-08T02:15:37.243Z,58.83
2023-04-08T02:18:15.664Z,56.20
2023-04-08T02:20:49.073Z,53.30
2023-04-08T02:23:22.954Z,60.95
2023-04-08T02:25:54.055Z,61.55
2023-04-08T02:28:26.868Z,58.73
2023-04-08T02:30:57.056Z,64.17
2023-04-08T02:33:27.170Z,61.05
2023-04-08T02:35:57.350Z,57.73
2023-04-08T02:38:28.319Z,60.05
2023-04-08T02:40:58.533Z,66.95
2023-04-08T02:43:29.428Z,68.67
2023-04-08T02:46:04.227Z,69.12
2023-04-08T02:48:34.410Z,58.38
2023-04-08T02:51:04.255Z,66.00
2023-04-08T02:53:33.506Z,69.05
2023-04-08T02:56:02.987Z,74.12
2023-04-08T02:58:32.535Z,71.82
2023-04-08T03:01:01.942Z,74.80
2023-04-08T03:03:31.418Z,72.40
2023-04-08T03:06:00.840Z,72.97
2023-04-08T03:08:30.655Z,76.62
2023-04-08T03:11:00.306Z,76.92
2023-04-08T03:13:29.909Z,73.47
2023-04-08T03:15:59.531Z,77.05
2023-04-08T03:18:28.825Z,75.35
2023-04-08T03:20:58.152Z,75.52
2023-04-08T03:23:27.435Z,68.52
2023-04-08T03:25:56.769Z,73.90
2023-04-08T03:28:26.338Z,73.07
2023-04-08T03:30:55.778Z,68.67
2023-04-08T03:33:25.215Z,71.57
2023-04-08T03:35:55.938Z,77.40
2023-04-08T03:38:25.362Z,73.55
2023-04-08T03:40:55.047Z,80.95
2023-04-08T03:43:25.593Z,77.82
2023-04-08T03:45:56.563Z,82.75
2023-04-08T03:48:25.892Z,74.03
2023-04-08T03:50:55.184Z,74.35
2023-04-08T03:53:24.572Z,77.30
2023-04-08T03:55:53.864Z,79.77
2023-04-08T03:58:23.178Z,80.35
2023-04-08T04:00:52.467Z,83.97
2023-04-08T04:03:21.934Z,76.82
2023-04-08T04:05:51.593Z,74.15
2023-04-08T04:08:20.973Z,85.38
2023-04-08T04:10:50.277Z,89.13
2023-04-08T04:13:19.698Z,75.97
2023-04-08T04:15:49.187Z,79.30
2023-04-08T04:18:19.341Z,74.65
2023-04-08T04:20:48.642Z,81.32
2023-04-08T04:23:17.976Z,73.95
2023-04-08T04:25:47.520Z,76.25
2023-04-08T04:28:17.244Z,81.32
2023-04-08T04:30:46.607Z,79.15
2023-04-08T04:33:15.952Z,78.85
2023-04-08T04:35:45.455Z,79.62
2023-04-08T04:38:14.945Z,85.12
2023-04-08T04:40:44.392Z,87.60
2023-04-08T04:43:13.682Z,83.87
2023-04-08T04:45:42.946Z,74.77
2023-04-08T04:48:12.243Z,77.65
2023-04-08T04:50:41.496Z,77.32
2023-04-08T04:53:10.864Z,83.80
2023-04-08T04:55:40.451Z,78.05
2023-04-08T04:58:09.715Z,77.55
2023-04-08T05:00:38.970Z,76.12
2023-04-08T05:03:08.554Z,78.42
2023-04-08T05:05:38.329Z,76.47
2023-04-08T05:08:07.907Z,74.47
2023-04-08T05:10:37.251Z,86.15
2023-04-08T05:13:06.851Z,74.35
2023-04-08T05:15:36.128Z,77.55
2023-04-08T05:18:05.709Z,78.90
2023-04-08T05:20:35.392Z,83.80
2023-04-08T05:23:04.683Z,87.40
2023-04-08T05:25:33.998Z,87.57
2023-04-08T05:28:04.283Z,83.50
2023-04-08T05:30:33.641Z,84.67
2023-04-08T05:33:02.961Z,83.30
2023-04-08T05:35:32.368Z,86.90
2023-04-08T05:38:01.637Z,87.35
2023-04-08T05:40:31.247Z,89.97
2023-04-08T05:43:00.628Z,87.22
2023-04-08T05:45:30.934Z,93.07
2023-04-08T05:48:00.393Z,87.25
2023-04-08T05:50:29.671Z,89.00
2023-04-08T05:52:58.946Z,90.03
2023-04-08T05:55:28.426Z,92.45
2023-04-08T05:57:57.699Z,83.37
2023-04-08T06:00:27.424Z,88.03
2023-04-08T06:02:56.935Z,86.12
2023-04-08T06:05:26.841Z,86.50
2023-04-08T06:07:56.415Z,78.92
2023-04-08T06:10:25.754Z,72.72
2023-04-08T06:12:55.372Z,78.30
2023-04-08T06:15:24.631Z,70.03
2023-04-08T06:17:54.251Z,72.47
2023-04-08T06:20:23.670Z,66.60
2023-04-08T06:22:53.096Z,62.88
2023-04-08T06:25:22.375Z,64.97
2023-04-08T06:27:51.977Z,61.75
2023-04-08T06:30:22.158Z,59.27
2023-04-08T06:32:51.582Z,62.95
2023-04-08T06:35:21.442Z,63.35
2023-04-08T06:37:50.695Z,58.85
2023-04-08T06:40:20.444Z,63.78
2023-04-08T06:42:49.689Z,57.45
2023-04-08T06:45:21.622Z,59.27
2023-04-08T06:47:50.931Z,63.75
2023-04-08T06:50:20.449Z,61.65
2023-04-08T06:52:49.784Z,61.30
2023-04-08T06:55:19.554Z,61.42
2023-04-08T06:57:48.792Z,62.25
2023-04-08T07:00:19.018Z,62.60
2023-04-08T07:02:48.356Z,61.77
2023-04-08T07:05:18.417Z,56.92
2023-04-08T07:07:47.664Z,64.60
2023-04-08T07:10:17.339Z,57.27
2023-04-08T07:12:46.699Z,57.73
2023-04-08T07:15:16.145Z,54.93
2023-04-08T07:17:46.332Z,54.03
2023-04-08T07:20:16.780Z,46.85
2023-04-08T07:22:46.251Z,50.85
2023-04-08T07:25:16.094Z,50.28
2023-04-08T07:27:45.633Z,54.45
2023-04-08T07:30:15.647Z,51.60
2023-04-08T07:32:44.958Z,53.80
2023-04-08T07:35:14.292Z,47.03
2023-04-08T07:37:43.883Z,54.23
2023-04-08T07:40:13.947Z,48.95
2023-04-08T07:42:43.578Z,46.80
2023-04-08T07:45:13.133Z,52.90
2023-04-08T07:47:42.417Z,47.93
2023-04-08T07:50:12.447Z,48.30
2023-04-08T07:52:41.731Z,44.33
2023-04-08T07:55:11.682Z,45.65
2023-04-08T07:57:40.945Z,40.98
2023-04-08T08:00:11.226Z,41.08
2023-04-08T08:02:43.413Z,37.70
2023-04-08T08:05:12.801Z,35.95
2023-04-08T08:07:42.177Z,35.63
2023-04-08T08:10:11.978Z,34.80
2023-04-08T08:12:41.921Z,31.27
2023-04-08T08:15:11.782Z,31.25
2023-04-08T08:17:41.745Z,36.73
2023-04-08T08:20:12.172Z,37.35
2023-04-08T08:22:50.813Z,40.10
2023-04-08T08:25:13.587Z,49.42
2023-04-08T08:27:43.005Z,39.13
2023-04-08T08:30:12.810Z,41.28
2023-04-08T08:32:42.165Z,29.92
2023-04-08T08:35:11.830Z,27.93
2023-04-08T08:37:41.797Z,28.20
2023-04-08T08:40:11.979Z,25.20
2023-04-08T08:42:41.917Z,30.80
2023-04-08T08:45:11.500Z,25.35
2023-04-08T08:47:40.808Z,29.82
2023-04-08T08:50:11.025Z,26.55
2023-04-08T08:52:40.490Z,27.22
2023-04-08T08:55:26.987Z,26.85
2023-04-08T08:57:41.253Z,28.00
2023-04-08T09:00:11.228Z,24.92
2023-04-08T09:02:40.768Z,25.55
2023-04-08T09:05:10.676Z,25.55
2023-04-08T09:07:40.944Z,25.80
2023-04-08T09:10:10.757Z,24.82
2023-04-08T09:12:49.022Z,22.32
2023-04-08T09:15:18.573Z,24.72
2023-04-08T09:17:48.158Z,23.57
2023-04-08T09:20:17.696Z,22.82
2023-04-08T09:22:58.889Z,22.93
2023-04-08T09:25:30.853Z,26.50
2023-04-08T09:28:02.435Z,28.57
2023-04-08T09:30:33.361Z,27.58
2023-04-08T09:33:04.490Z,29.45
2023-04-08T09:35:33.838Z,29.23
2023-04-08T09:38:03.441Z,29.05
2023-04-08T09:40:36.820Z,30.02
2023-04-08T09:43:07.071Z,29.20
2023-04-08T09:45:38.157Z,29.57
2023-04-08T09:48:16.249Z,28.87
2023-04-08T09:50:50.474Z,29.27
2023-04-08T09:53:26.526Z,29.85
2023-04-08T09:55:57.677Z,27.30
2023-04-08T09:58:31.392Z,29.15
2023-04-08T10:01:01.299Z,26.02
2023-04-08T10:03:36.187Z,28.10
2023-04-08T10:06:06.370Z,28.25
2023-04-08T10:08:36.420Z,32.45
2023-04-08T10:11:06.434Z,30.10
2023-04-08T10:13:36.006Z,29.12
2023-04-08T10:16:27.244Z,28.92
2023-04-08T10:18:57.438Z,27.40
2023-04-08T10:21:41.207Z,26.17
2023-04-08T10:24:11.168Z,26.30
2023-04-08T10:26:44.909Z,26.90
2023-04-08T10:29:29.173Z,27.07
2023-04-08T10:31:58.554Z,26.27
2023-04-08T10:34:28.647Z,26.27
2023-04-08T10:36:59.580Z,25.68
2023-04-08T10:39:28.905Z,25.12
2023-04-08T10:41:58.550Z,22.58
2023-04-08T10:44:29.680Z,23.77
2023-04-08T10:47:02.243Z,22.10
2023-04-08T10:49:34.464Z,24.50
2023-04-08T10:52:09.339Z,21.02
2023-04-08T10:54:39.522Z,21.82
2023-04-08T10:57:08.960Z,21.35
2023-04-08T10:59:39.830Z,20.85
2023-04-08T11:02:12.439Z,21.90
2023-04-08T11:04:44.634Z,21.17
2023-04-08T11:07:15.484Z,22.30
2023-04-08T11:09:45.058Z,22.27
2023-04-08T11:12:18.657Z,22.60
2023-04-08T11:14:49.630Z,20.52
2023-04-08T11:17:19.575Z,21.68
2023-04-08T11:19:48.966Z,20.40
2023-04-08T11:22:18.960Z,20.27
2023-04-08T11:24:48.887Z,19.95
2023-04-08T11:27:18.513Z,19.95
2023-04-08T11:29:48.088Z,20.27
2023-04-08T11:32:17.507Z,21.02
2023-04-08T11:34:48.710Z,20.40
2023-04-08T11:37:18.579Z,20.02
2023-04-08T11:39:48.319Z,19.10
2023-04-08T11:42:32.186Z,20.05
2023-04-08T11:45:01.829Z,20.43
2023-04-08T11:47:34.706Z,20.90
2023-04-08T11:50:04.536Z,20.77
2023-04-08T11:52:47.540Z,20.95
2023-04-08T11:55:29.079Z,21.33
2023-04-08T11:58:01.947Z,19.80
2023-04-08T12:00:33.130Z,21.65
2023-04-08T12:03:02.974Z,21.97
2023-04-08T12:05:32.661Z,19.10
2023-04-08T12:08:01.945Z,17.85
2023-04-08T12:10:31.441Z,18.90
2023-04-08T12:13:00.739Z,18.90
2023-04-08T12:15:31.041Z,17.85
2023-04-08T12:18:00.544Z,20.27
2023-04-08T12:20:30.419Z,19.62
2023-04-08T12:22:59.794Z,19.20
2023-04-08T12:25:29.189Z,20.95
2023-04-08T12:27:58.451Z,21.30
2023-04-08T12:30:27.732Z,19.30
2023-04-08T12:32:57.959Z,19.82
2023-04-08T12:35:27.340Z,19.00
2023-04-08T12:37:56.754Z,22.70
2023-04-08T12:40:26.739Z,20.65
2023-04-08T12:42:56.033Z,19.87
2023-04-08T12:45:25.484Z,19.82
2023-04-08T12:47:54.827Z,20.23
2023-04-08T12:50:24.455Z,20.92
2023-04-08T12:52:53.782Z,21.07
2023-04-08T12:55:24.680Z,21.05
2023-04-08T12:57:54.265Z,23.38
2023-04-08T13:00:23.803Z,19.50
2023-04-08T13:02:53.209Z,17.48
2023-04-08T13:05:32.839Z,20.12
2023-04-08T13:07:53.970Z,19.20
2023-04-08T13:10:23.481Z,21.12
2023-04-08T13:12:52.956Z,20.17
2023-04-08T13:15:22.338Z,21.82
2023-04-08T13:17:51.901Z,19.52
2023-04-08T13:20:22.916Z,20.62
2023-04-08T13:22:53.296Z,22.70
2023-04-08T13:25:22.784Z,19.90
2023-04-08T13:27:52.058Z,22.25
2023-04-08T13:30:21.314Z,23.12
2023-04-08T13:32:50.941Z,22.45
2023-04-08T13:35:20.968Z,23.92
2023-04-08T13:37:50.686Z,24.72
2023-04-08T13:40:20.025Z,22.10
2023-04-08T13:42:49.504Z,22.10
2023-04-08T13:45:19.471Z,20.90
2023-04-08T13:47:48.830Z,18.50
2023-04-08T13:50:18.419Z,18.87
2023-04-08T13:52:47.710Z,18.80
2023-04-08T13:55:17.353Z,20.50
2023-04-08T13:57:46.703Z,20.02
2023-04-08T14:00:16.581Z,20.52
2023-04-08T14:02:46.101Z,20.62
2023-04-08T14:05:16.116Z,21.75
2023-04-08T14:07:45.775Z,21.57
2023-04-08T14:10:16.525Z,21.65
2023-04-08T14:12:46.742Z,20.17
2023-04-08T14:15:16.351Z,20.72
2023-04-08T14:17:46.049Z,19.87
2023-04-08T14:20:15.564Z,17.77
2023-04-08T14:22:44.888Z,18.77
2023-04-08T14:25:14.232Z,20.55
2023-04-08T14:27:56.704Z,18.95
2023-04-08T14:30:15.394Z,19.73
2023-04-08T14:32:44.729Z,18.37
2023-04-08T14:35:14.030Z,16.35
2023-04-08T14:37:43.398Z,17.65
2023-04-08T14:40:13.308Z,17.37
2023-04-08T14:42:42.815Z,16.12
2023-04-08T14:45:13.340Z,14.43
2023-04-08T14:47:43.081Z,13.93
2023-04-08T14:50:12.726Z,15.15
2023-04-08T14:52:42.162Z,16.10
2023-04-08T14:55:11.557Z,14.80
2023-04-08T14:57:41.236Z,15.18
2023-04-08T15:00:11.468Z,17.17
2023-04-08T15:02:41.587Z,15.90
2023-04-08T15:05:11.161Z,17.10
2023-04-08T15:07:40.924Z,16.30
2023-04-08T15:10:10.719Z,17.62
2023-04-08T15:12:40.203Z,16.02
2023-04-08T15:15:10.605Z,16.97
2023-04-08T15:17:40.223Z,17.80
2023-04-08T15:20:10.456Z,16.87
2023-04-08T15:22:40.167Z,15.23
2023-04-08T15:25:10.693Z,14.47
2023-04-08T15:27:40.858Z,14.60
2023-04-08T15:30:12.282Z,17.90
2023-04-08T15:32:42.277Z,15.53
2023-04-08T15:35:12.129Z,14.33
2023-04-08T15:37:41.412Z,14.07
2023-04-08T15:40:11.273Z,13.20
2023-04-08T15:42:40.853Z,14.20
2023-04-08T15:45:11.408Z,16.42
2023-04-08T15:47:41.976Z,17.42
2023-04-08T15:50:12.024Z,21.45
2023-04-08T15:52:41.916Z,15.35
2023-04-08T15:55:11.746Z,14.75
2023-04-08T15:57:41.424Z,14.20
2023-04-08T16:00:11.856Z,14.90
2023-04-08T16:05:13.291Z,17.02
2023-04-08T16:07:42.944Z,18.75
2023-04-08T16:10:12.338Z,18.25
2023-04-08T16:12:42.029Z,18.02
2023-04-08T16:15:12.034Z,17.77
2023-04-08T16:17:41.464Z,19.30
2023-04-08T16:20:11.582Z,16.42
2023-04-08T16:22:41.505Z,20.60
2023-04-08T16:25:10.988Z,18.57
2023-04-08T16:27:40.382Z,16.12
2023-04-08T16:30:10.548Z,15.53
2023-04-08T16:32:40.340Z,15.80
2023-04-08T16:35:10.409Z,14.98
2023-04-08T16:37:39.900Z,16.65
2023-04-08T16:40:10.069Z,17.05
2023-04-08T16:42:39.580Z,14.23
2023-04-08T16:45:09.800Z,17.87
2023-04-08T16:47:40.880Z,15.08
2023-04-08T16:50:10.416Z,16.65
2023-04-08T16:52:40.367Z,17.20
2023-04-08T16:55:11.253Z,16.87
2023-04-08T16:57:41.499Z,13.43
2023-04-08T17:00:11.685Z,16.35
2023-04-08T17:02:41.579Z,13.75
2023-04-08T17:05:11.339Z,17.15
2023-04-08T17:07:40.717Z,15.40
2023-04-08T17:10:11.107Z,13.65
2023-04-08T17:12:40.840Z,12.98
2023-04-08T17:15:11.376Z,14.63
2023-04-08T17:17:41.080Z,13.28
2023-04-08T17:20:11.517Z,12.60
2023-04-08T17:22:40.930Z,12.70
2023-04-08T17:25:11.792Z,16.12
2023-04-08T17:27:41.383Z,15.25
2023-04-08T17:30:11.877Z,13.90
2023-04-08T17:32:41.168Z,14.40
2023-04-08T17:35:11.534Z,13.28
2023-04-08T17:37:40.893Z,13.98
2023-04-08T17:40:10.898Z,12.40
2023-04-08T17:42:40.315Z,13.20
2023-04-08T17:45:10.658Z,13.28
2023-04-08T17:47:39.988Z,14.70
2023-04-08T17:50:11.737Z,13.22
2023-04-08T17:52:48.346Z,12.53
2023-04-08T17:55:18.344Z,13.53
2023-04-08T17:57:49.232Z,14.78
2023-04-08T18:00:18.889Z,15.00
2023-04-08T18:02:50.343Z,15.60
2023-04-08T18:05:20.667Z,14.10
2023-04-08T18:07:50.290Z,14.95
2023-04-08T18:10:19.819Z,14.58
2023-04-08T18:12:50.734Z,17.50
2023-04-08T18:15:20.094Z,17.32
2023-04-08T18:17:49.477Z,17.30
2023-04-08T18:20:19.344Z,17.73
2023-04-08T18:22:49.183Z,16.95
2023-04-08T18:25:20.876Z,16.00
2023-04-08T18:27:51.389Z,17.43
2023-04-08T18:30:20.687Z,19.73
2023-04-08T18:32:50.160Z,18.02
2023-04-08T18:35:19.805Z,16.82
2023-04-08T18:37:49.436Z,17.40
2023-04-08T18:40:18.923Z,22.05
2023-04-08T18:42:48.423Z,21.35
2023-04-08T18:45:17.895Z,22.58
2023-04-08T18:47:47.596Z,25.35
2023-04-08T18:50:16.979Z,22.32
2023-04-08T18:52:46.441Z,22.77
2023-04-08T18:55:15.862Z,22.85
2023-04-08T18:57:45.605Z,24.15
2023-04-08T19:00:15.628Z,25.80
2023-04-08T19:02:45.016Z,26.25
2023-04-08T19:05:14.757Z,28.10
2023-04-08T19:07:44.532Z,25.27
2023-04-08T19:10:13.838Z,25.72
2023-04-08T19:12:43.794Z,25.80
2023-04-08T19:15:13.671Z,25.77
2023-04-08T19:17:43.368Z,28.02
2023-04-08T19:20:13.170Z,29.55
2023-04-08T19:22:42.500Z,32.93
2023-04-08T19:25:11.859Z,31.15
2023-04-08T19:27:41.800Z,33.35
2023-04-08T19:30:13.576Z,31.97
2023-04-08T19:32:43.239Z,32.47
2023-04-08T19:35:16.041Z,34.10
2023-04-08T19:37:45.711Z,30.65
2023-04-08T19:40:15.220Z,34.27
2023-04-08T19:42:46.167Z,36.73
2023-04-08T19:45:15.820Z,38.73
2023-04-08T19:47:45.280Z,42.95
2023-04-08T19:50:14.725Z,41.70
2023-04-08T19:52:44.811Z,40.00
2023-04-08T19:55:14.922Z,42.73
2023-04-08T19:57:45.131Z,41.98
2023-04-08T20:00:14.631Z,45.50
2023-04-08T20:02:44.445Z,47.25
2023-04-08T20:05:15.626Z,45.83
2023-04-08T20:07:45.196Z,48.52
2023-04-08T20:10:14.611Z,45.05
2023-04-08T20:12:43.966Z,48.75
2023-04-08T20:15:23.531Z,46.42
2023-04-08T20:17:44.933Z,44.38
2023-04-08T20:20:14.943Z,48.33
2023-04-08T20:22:45.917Z,49.05
2023-04-08T20:25:15.299Z,49.45
2023-04-08T20:27:44.756Z,54.42
2023-04-08T20:30:14.315Z,54.67
2023-04-08T20:32:44.326Z,55.63
2023-04-08T20:35:13.881Z,57.67
2023-04-08T20:37:43.537Z,54.95
2023-04-08T20:40:13.993Z,59.15
2023-04-08T20:42:44.044Z,60.12
2023-04-08T20:45:13.671Z,60.40
2023-04-08T20:47:44.742Z,53.90
2023-04-08T20:50:14.355Z,58.55
2023-04-08T20:52:55.208Z,52.25
2023-04-08T20:55:29.006Z,59.53
2023-04-08T20:58:00.481Z,59.85
2023-04-08T21:00:31.892Z,59.27
2023-04-08T21:03:01.262Z,56.40
2023-04-08T21:05:30.879Z,60.58
2023-04-08T21:08:00.301Z,61.23
2023-04-08T21:10:29.923Z,57.08
2023-04-08T21:13:01.097Z,58.87
2023-04-08T21:15:31.542Z,59.88
2023-04-08T21:18:01.100Z,57.80
2023-04-08T21:20:30.848Z,59.53
2023-04-08T21:23:00.822Z,58.50
2023-04-08T21:25:32.853Z,58.75
2023-04-08T21:28:02.196Z,62.45
2023-04-08T21:30:31.855Z,61.37
2023-04-08T21:33:01.540Z,61.50
2023-04-08T21:35:31.592Z,58.42
2023-04-08T21:38:00.996Z,57.38
2023-04-08T21:40:30.481Z,59.05
2023-04-08T21:42:59.806Z,60.48
2023-04-08T21:45:29.178Z,59.73
2023-04-08T21:47:58.773Z,58.70
2023-04-08T21:50:28.155Z,56.10
2023-04-08T21:52:57.429Z,55.52
2023-04-08T21:55:27.445Z,54.88
2023-04-08T21:57:56.932Z,58.75
2023-04-08T22:00:26.986Z,57.03
2023-04-08T22:02:56.408Z,62.40
2023-04-08T22:05:25.902Z,55.08
2023-04-08T22:07:55.444Z,53.55
2023-04-08T22:10:24.944Z,55.43
2023-04-08T22:12:54.219Z,53.87
2023-04-08T22:15:23.654Z,54.13
2023-04-08T22:17:53.367Z,54.53
2023-04-08T22:20:22.903Z,55.23
2023-04-08T22:22:52.302Z,52.25
2023-04-08T22:25:21.703Z,52.75
2023-04-08T22:27:51.448Z,49.70
2023-04-08T22:30:21.463Z,51.63
2023-04-08T22:32:50.710Z,53.38
2023-04-08T22:35:20.499Z,52.53
2023-04-08T22:37:49.756Z,52.80
2023-04-08T22:40:19.232Z,55.73
2023-04-08T22:42:48.519Z,52.85
2023-04-08T22:45:17.792Z,61.08
2023-04-08T22:47:47.074Z,56.42
2023-04-08T22:50:17.138Z,57.48
2023-04-08T22:52:46.388Z,56.05
2023-04-08T22:55:15.692Z,54.45
2023-04-08T22:57:45.004Z,53.98
2023-04-08T23:00:16.601Z,57.00
2023-04-08T23:02:45.983Z,57.45
2023-04-08T23:05:15.523Z,58.10
2023-04-08T23:07:44.787Z,60.00
2023-04-08T23:10:14.105Z,54.83
2023-04-08T23:12:43.357Z,60.23
2023-04-08T23:15:12.695Z,57.40
2023-04-08T23:17:42.027Z,55.17
2023-04-08T23:20:12.341Z,57.20
2023-04-08T23:22:41.861Z,58.13
2023-04-08T23:25:11.798Z,57.33
2023-04-08T23:27:41.073Z,55.12
2023-04-08T23:30:11.272Z,53.83
2023-04-08T23:32:40.593Z,55.95
2023-04-08T23:35:10.228Z,57.78
2023-04-08T23:37:39.771Z,55.90
2023-04-08T23:40:10.200Z,57.90
2023-04-08T23:42:39.504Z,52.83
2023-04-08T23:45:09.522Z,55.05
2023-04-08T23:47:38.872Z,57.03
2023-04-08T23:50:09.679Z,54.35
2023-04-08T23:52:38.956Z,56.58
2023-04-08T23:55:08.831Z,56.80
2023-04-08T23:57:38.118Z,56.60
